createdAt,value
2023-03-29T00:00:29.312Z,99967.63
2023-03-29T00:01:35.371Z,99973.63
2023-03-29T00:02:38.020Z,99975.53
2023-03-29T00:03:39.800Z,99965.16
2023-03-29T00:04:41.490Z,99971.00
2023-03-29T00:05:43.221Z,99972.69
2023-03-29T00:06:44.799Z,99969.22
2023-03-29T00:07:46.916Z,99975.28
2023-03-29T00:08:51.104Z,99971.78
2023-03-29T00:09:52.715Z,99970.88
2023-03-29T00:10:55.999Z,99966.50
2023-03-29T00:11:57.705Z,99969.06
2023-03-29T00:12:59.540Z,99970.75
2023-03-29T00:14:01.106Z,99965.63
2023-03-29T00:15:04.317Z,99969.13
2023-03-29T00:16:06.494Z,99971.03
2023-03-29T00:17:08.119Z,99964.09
2023-03-29T00:18:09.802Z,99960.66
2023-03-29T00:19:11.448Z,99961.47
2023-03-29T00:20:13.054Z,99963.94
2023-03-29T00:21:14.619Z,99963.06
2023-03-29T00:22:16.480Z,99960.47
2023-03-29T00:23:18.053Z,99965.72
2023-03-29T00:24:19.828Z,99955.19
2023-03-29T00:25:21.418Z,99955.13
2023-03-29T00:26:23.276Z,99956.06
2023-03-29T00:27:24.880Z,99953.69
2023-03-29T00:28:26.594Z,99949.22
2023-03-29T00:29:28.797Z,99957.06
2023-03-29T00:30:30.379Z,99947.50
2023-03-29T00:31:32.013Z,99953.47
2023-03-29T00:32:34.152Z,99948.38
2023-03-29T00:33:36.038Z,99942.34
2023-03-29T00:34:37.643Z,99948.41
2023-03-29T00:35:39.775Z,99947.56
2023-03-29T00:36:41.370Z,99946.63
2023-03-29T00:37:42.961Z,99944.03
2023-03-29T00:38:45.373Z,99948.38
2023-03-29T00:39:47.056Z,99939.78
2023-03-29T00:40:48.642Z,99938.94
2023-03-29T00:41:50.642Z,99936.47
2023-03-29T00:42:52.403Z,99937.31
2023-03-29T00:44:02.685Z,99933.91
2023-03-29T00:45:12.486Z,99936.34
2023-03-29T00:46:14.083Z,99930.34
2023-03-29T00:47:17.731Z,99939.09
2023-03-29T00:48:26.233Z,99933.03
2023-03-29T00:49:28.037Z,99930.41
2023-03-29T00:50:35.642Z,99939.13
2023-03-29T00:51:40.086Z,99934.78
2023-03-29T00:52:46.928Z,99930.59
2023-03-29T00:53:56.204Z,99930.53
2023-03-29T00:55:01.966Z,99935.63
2023-03-29T00:56:09.915Z,99923.59
2023-03-29T00:57:13.723Z,99921.03
2023-03-29T00:58:21.228Z,99918.41
2023-03-29T00:59:27.390Z,99924.50
2023-03-29T01:00:35.103Z,99926.38
2023-03-29T01:01:45.102Z,99914.22
2023-03-29T01:02:51.862Z,99918.44
2023-03-29T01:04:01.476Z,99922.00
2023-03-29T01:05:08.504Z,99916.75
2023-03-29T01:06:11.246Z,99919.28
2023-03-29T01:07:20.573Z,99924.97
2023-03-29T01:08:30.005Z,99917.34
2023-03-29T01:09:35.198Z,99919.16
2023-03-29T01:10:48.749Z,99912.31
2023-03-29T01:11:59.440Z,99918.28
2023-03-29T01:13:08.445Z,99910.59
2023-03-29T01:14:14.303Z,99900.19
2023-03-29T01:15:21.098Z,99908.78
2023-03-29T01:16:25.257Z,99908.81
2023-03-29T01:17:28.228Z,99904.56
2023-03-29T01:18:29.826Z,99905.53
2023-03-29T01:19:59.655Z,99911.50
2023-03-29T01:21:16.313Z,99908.03
2023-03-29T01:22:42.837Z,99907.13
2023-03-29T01:24:17.645Z,99906.34
2023-03-29T01:25:36.355Z,99904.44
2023-03-29T01:26:46.654Z,99908.84
2023-03-29T01:27:56.785Z,99908.81
2023-03-29T01:29:04.452Z,99907.25
2023-03-29T01:30:13.084Z,99903.66
2023-03-29T01:31:23.066Z,99907.16
2023-03-29T01:32:33.226Z,99899.44
2023-03-29T01:33:42.401Z,99901.09
2023-03-29T01:34:48.812Z,99903.63
2023-03-29T01:36:02.130Z,99898.47
2023-03-29T01:37:12.541Z,99907.03
2023-03-29T01:38:21.433Z,99897.47
2023-03-29T01:39:23.012Z,99894.81
2023-03-29T01:40:25.227Z,99906.97
2023-03-29T01:41:34.249Z,99895.03
2023-03-29T01:42:46.583Z,99895.06
2023-03-29T01:43:58.611Z,99897.72
2023-03-29T01:45:27.698Z,99897.16
2023-03-29T01:46:55.561Z,99898.94
2023-03-29T01:48:10.970Z,99889.53
2023-03-29T01:49:24.198Z,99898.06
2023-03-29T01:50:37.853Z,99901.47
2023-03-29T01:51:49.115Z,99903.31
2023-03-29T01:53:01.946Z,99903.31
2023-03-29T01:54:13.651Z,99899.81
2023-03-29T01:55:17.914Z,99900.63
2023-03-29T01:56:27.020Z,99897.19
2023-03-29T01:57:30.100Z,99898.13
2023-03-29T01:58:35.219Z,99901.63
2023-03-29T01:59:40.407Z,99900.63
2023-03-29T02:00:42.951Z,99897.94
2023-03-29T02:01:51.940Z,99906.50
2023-03-29T02:03:00.374Z,99904.84
2023-03-29T02:04:06.619Z,99903.91
2023-03-29T02:05:10.354Z,99899.75
2023-03-29T02:06:14.742Z,99899.75
2023-03-29T02:07:20.306Z,99900.66
2023-03-29T02:08:22.384Z,99898.06
2023-03-29T02:09:26.150Z,99899.75
2023-03-29T02:10:28.339Z,99901.53
2023-03-29T02:11:29.922Z,99898.16
2023-03-29T02:12:31.646Z,99899.06
2023-03-29T02:13:34.220Z,99898.94
2023-03-29T02:14:36.336Z,99898.88
2023-03-29T02:15:39.939Z,99899.84
2023-03-29T02:16:41.611Z,99904.25
2023-03-29T02:17:43.236Z,99898.16
2023-03-29T02:18:48.168Z,99897.38
2023-03-29T02:19:54.890Z,99895.16
2023-03-29T02:20:57.742Z,99899.50
2023-03-29T02:22:09.279Z,99896.94
2023-03-29T02:23:24.411Z,99897.84
2023-03-29T02:24:27.251Z,99902.09
2023-03-29T02:25:29.446Z,99896.19
2023-03-29T02:26:31.185Z,99895.69
2023-03-29T02:27:33.317Z,99900.94
2023-03-29T02:28:35.813Z,99901.63
2023-03-29T02:29:37.394Z,99895.44
2023-03-29T02:30:56.567Z,99902.19
2023-03-29T02:31:59.692Z,99893.59
2023-03-29T02:33:08.924Z,99898.81
2023-03-29T02:34:26.323Z,99900.53
2023-03-29T02:35:35.048Z,99903.09
2023-03-29T02:36:42.409Z,99903.13
2023-03-29T02:37:47.508Z,99904.03
2023-03-29T02:38:49.682Z,99904.88
2023-03-29T02:39:52.422Z,99899.75
2023-03-29T02:40:56.215Z,99893.75
2023-03-29T02:41:58.868Z,99900.66
2023-03-29T02:43:01.971Z,99901.81
2023-03-29T02:44:07.347Z,99898.38
2023-03-29T02:45:10.935Z,99900.06
2023-03-29T02:46:14.689Z,99900.94
2023-03-29T02:47:30.671Z,99899.22
2023-03-29T02:48:37.566Z,99903.44
2023-03-29T02:49:39.332Z,99894.81
2023-03-29T02:50:44.896Z,99898.16
2023-03-29T02:51:50.904Z,99895.69
2023-03-29T02:52:59.700Z,99895.78
2023-03-29T02:54:06.127Z,99895.81
2023-03-29T02:55:12.110Z,99893.25
2023-03-29T02:56:13.892Z,99890.66
2023-03-29T02:57:15.701Z,99891.63
2023-03-29T02:58:17.376Z,99885.75
2023-03-29T02:59:19.243Z,99889.91
2023-03-29T03:00:20.893Z,99888.25
2023-03-29T03:01:22.653Z,99888.13
2023-03-29T03:02:25.202Z,99886.31
2023-03-29T03:03:29.045Z,99882.84
2023-03-29T03:04:33.135Z,99882.00
2023-03-29T03:05:35.745Z,99885.44
2023-03-29T03:06:38.137Z,99886.28
2023-03-29T03:07:40.414Z,99889.53
2023-03-29T03:08:42.230Z,99886.84
2023-03-29T03:09:44.202Z,99885.84
2023-03-29T03:10:46.066Z,99882.47
2023-03-29T03:11:47.659Z,99879.16
2023-03-29T03:12:49.530Z,99884.16
2023-03-29T03:13:51.257Z,99878.13
2023-03-29T03:14:52.814Z,99883.16
2023-03-29T03:15:55.214Z,99881.41
2023-03-29T03:16:56.909Z,99873.56
2023-03-29T03:17:58.693Z,99882.16
2023-03-29T03:19:00.311Z,99876.03
2023-03-29T03:20:02.430Z,99876.19
2023-03-29T03:21:05.006Z,99880.53
2023-03-29T03:22:06.710Z,99879.66
2023-03-29T03:23:08.630Z,99882.25
2023-03-29T03:24:10.379Z,99876.38
2023-03-29T03:25:11.986Z,99873.78
2023-03-29T03:26:15.108Z,99872.09
2023-03-29T03:27:17.907Z,99880.00
2023-03-29T03:28:20.448Z,99878.38
2023-03-29T03:29:22.181Z,99878.53
2023-03-29T03:30:42.282Z,99874.44
2023-03-29T03:32:12.901Z,99875.06
2023-03-29T03:33:37.319Z,99872.41
2023-03-29T03:34:59.445Z,99874.09
2023-03-29T03:36:01.694Z,99872.34
2023-03-29T03:37:04.521Z,99874.81
2023-03-29T03:38:08.938Z,99870.63
2023-03-29T03:39:10.921Z,99872.25
2023-03-29T03:40:13.003Z,99873.09
2023-03-29T03:41:15.214Z,99874.72
2023-03-29T03:42:16.810Z,99875.53
2023-03-29T03:43:20.042Z,99874.81
2023-03-29T03:44:23.085Z,99875.69
2023-03-29T03:45:42.429Z,99874.72
2023-03-29T03:46:49.925Z,99863.66
2023-03-29T03:47:51.639Z,99872.34
2023-03-29T03:49:19.232Z,99864.59
2023-03-29T03:50:21.268Z,99868.84
2023-03-29T03:51:23.465Z,99870.56
2023-03-29T03:52:26.096Z,99868.00
2023-03-29T03:53:27.997Z,99873.16
2023-03-29T03:54:41.560Z,99865.53
2023-03-29T03:56:12.267Z,99869.84
2023-03-29T03:57:46.180Z,99863.84
2023-03-29T03:58:49.988Z,99863.78
2023-03-29T03:59:53.401Z,99868.88
2023-03-29T04:01:01.378Z,99868.88
2023-03-29T04:02:18.742Z,99872.34
2023-03-29T04:03:20.949Z,99865.28
2023-03-29T04:04:22.894Z,99869.69
2023-03-29T04:05:53.564Z,99870.66
2023-03-29T04:06:59.051Z,99870.78
2023-03-29T04:08:00.639Z,99874.22
2023-03-29T04:09:25.319Z,99876.25
2023-03-29T04:10:40.136Z,99872.22
2023-03-29T04:11:49.547Z,99867.44
2023-03-29T04:12:51.143Z,99869.22
2023-03-29T04:13:52.746Z,99865.66
2023-03-29T04:15:06.312Z,99870.16
2023-03-29T04:16:08.238Z,99864.97
2023-03-29T04:17:09.828Z,99866.69
2023-03-29T04:18:24.986Z,99869.00
2023-03-29T04:19:30.954Z,99872.41
2023-03-29T04:20:32.718Z,99868.84
2023-03-29T04:21:35.238Z,99860.19
2023-03-29T04:22:37.518Z,99864.38
2023-03-29T04:23:39.137Z,99860.88
2023-03-29T04:24:40.889Z,99860.84
2023-03-29T04:25:56.131Z,99860.84
2023-03-29T04:27:14.684Z,99864.13
2023-03-29T04:28:16.287Z,99867.56
2023-03-29T04:29:39.164Z,99868.94
2023-03-29T04:30:52.151Z,99859.91
2023-03-29T04:32:14.145Z,99865.38
2023-03-29T04:33:27.403Z,99866.34
2023-03-29T04:34:33.993Z,99869.91
2023-03-29T04:35:36.284Z,99860.22
2023-03-29T04:36:38.143Z,99857.44
2023-03-29T04:37:44.874Z,99860.69
2023-03-29T04:38:49.239Z,99862.09
2023-03-29T04:39:51.849Z,99866.25
2023-03-29T04:40:53.659Z,99867.16
2023-03-29T04:42:30.778Z,99866.31
2023-03-29T04:43:32.364Z,99868.81
2023-03-29T04:44:43.435Z,99865.38
2023-03-29T04:45:47.264Z,99867.03
2023-03-29T04:47:01.762Z,99860.69
2023-03-29T04:48:21.842Z,99861.53
2023-03-29T04:49:25.922Z,99862.75
2023-03-29T04:50:28.395Z,99862.28
2023-03-29T04:51:30.091Z,99854.78
2023-03-29T04:52:32.587Z,99860.69
2023-03-29T04:53:35.246Z,99867.31
2023-03-29T04:54:37.109Z,99864.69
2023-03-29T04:55:47.207Z,99856.41
2023-03-29T04:56:54.310Z,99857.44
2023-03-29T04:58:09.240Z,99864.88
2023-03-29T04:59:13.870Z,99863.84
2023-03-29T05:00:15.848Z,99864.66
2023-03-29T05:01:36.263Z,99862.88
2023-03-29T05:02:38.023Z,99855.78
2023-03-29T05:03:39.663Z,99865.19
2023-03-29T05:04:49.625Z,99861.91
2023-03-29T05:05:53.268Z,99867.91
2023-03-29T05:06:55.778Z,99864.25
2023-03-29T05:07:57.425Z,99860.59
2023-03-29T05:09:07.846Z,99868.94
2023-03-29T05:10:23.606Z,99865.16
2023-03-29T05:11:25.194Z,99865.91
2023-03-29T05:12:27.367Z,99865.63
2023-03-29T05:13:29.660Z,99862.78
2023-03-29T05:14:31.270Z,99867.84
2023-03-29T05:15:32.919Z,99854.03
2023-03-29T05:16:34.712Z,99859.25
2023-03-29T05:17:36.599Z,99862.63
2023-03-29T05:18:43.231Z,99859.63
2023-03-29T05:19:45.512Z,99854.66
2023-03-29T05:20:50.494Z,99852.69
2023-03-29T05:21:53.457Z,99847.78
2023-03-29T05:22:57.836Z,99848.38
2023-03-29T05:24:22.217Z,99846.72
2023-03-29T05:25:36.343Z,99835.84
2023-03-29T05:26:38.564Z,99843.09
2023-03-29T05:27:42.386Z,99837.50
2023-03-29T05:28:44.986Z,99843.16
2023-03-29T05:29:46.824Z,99844.44
2023-03-29T05:31:05.086Z,99849.66
2023-03-29T05:32:08.718Z,99854.69
2023-03-29T05:33:10.811Z,99849.47
2023-03-29T05:34:13.473Z,99848.88
2023-03-29T05:35:20.833Z,99854.81
2023-03-29T05:36:22.503Z,99852.75
2023-03-29T05:37:25.243Z,99854.44
2023-03-29T05:38:31.847Z,99854.56
2023-03-29T05:39:35.793Z,99858.19
2023-03-29T05:40:39.468Z,99864.47
2023-03-29T05:42:01.065Z,99854.66
2023-03-29T05:43:06.115Z,99853.22
2023-03-29T05:44:07.757Z,99851.38
2023-03-29T05:45:11.108Z,99842.41
2023-03-29T05:46:14.402Z,99852.34
2023-03-29T05:47:22.926Z,99850.72
2023-03-29T05:48:25.817Z,99849.41
2023-03-29T05:49:27.513Z,99845.53
2023-03-29T05:50:51.662Z,99854.81
2023-03-29T05:51:53.729Z,99853.81
2023-03-29T05:52:55.432Z,99852.81
2023-03-29T05:53:57.981Z,99853.75
2023-03-29T05:54:59.883Z,99852.72
2023-03-29T05:56:02.311Z,99853.41
2023-03-29T05:57:04.997Z,99855.94
2023-03-29T05:58:12.448Z,99854.00
2023-03-29T05:59:15.073Z,99851.72
2023-03-29T06:00:17.954Z,99857.81
2023-03-29T06:01:19.665Z,99860.50
2023-03-29T06:02:35.307Z,99859.59
2023-03-29T06:03:38.651Z,99858.44
2023-03-29T06:04:40.828Z,99853.34
2023-03-29T06:06:06.762Z,99859.81
2023-03-29T06:07:08.744Z,99848.63
2023-03-29T06:08:10.467Z,99850.44
2023-03-29T06:09:12.685Z,99850.75
2023-03-29T06:10:20.588Z,99846.00
2023-03-29T06:11:26.703Z,99850.28
2023-03-29T06:12:46.656Z,99846.53
2023-03-29T06:13:48.406Z,99853.28
2023-03-29T06:14:50.458Z,99845.81
2023-03-29T06:16:06.828Z,99849.97
2023-03-29T06:17:08.965Z,99848.06
2023-03-29T06:18:10.733Z,99851.91
2023-03-29T06:19:13.013Z,99853.66
2023-03-29T06:20:15.670Z,99850.41
2023-03-29T06:21:19.975Z,99850.00
2023-03-29T06:22:21.726Z,99853.75
2023-03-29T06:23:23.615Z,99851.38
2023-03-29T06:24:25.405Z,99849.56
2023-03-29T06:25:35.935Z,99847.56
2023-03-29T06:26:37.568Z,99849.25
2023-03-29T06:27:39.201Z,99848.44
2023-03-29T06:28:40.854Z,99847.06
2023-03-29T06:29:42.968Z,99845.81
2023-03-29T06:30:45.622Z,99849.03
2023-03-29T06:31:47.485Z,99849.56
2023-03-29T06:33:08.988Z,99850.88
2023-03-29T06:34:28.952Z,99853.50
2023-03-29T06:35:47.782Z,99850.13
2023-03-29T06:36:53.288Z,99853.09
2023-03-29T06:37:56.117Z,99855.78
2023-03-29T06:39:20.621Z,99847.69
2023-03-29T06:40:44.809Z,99849.06
2023-03-29T06:41:46.492Z,99852.47
2023-03-29T06:43:06.923Z,99849.97
2023-03-29T06:44:21.283Z,99859.38
2023-03-29T06:45:36.838Z,99846.41
2023-03-29T06:46:43.528Z,99855.59
2023-03-29T06:47:45.322Z,99854.94
2023-03-29T06:48:46.921Z,99846.13
2023-03-29T06:49:48.611Z,99853.19
2023-03-29T06:51:10.446Z,99853.78
2023-03-29T06:52:14.229Z,99851.44
2023-03-29T06:53:16.742Z,99852.47
2023-03-29T06:54:22.154Z,99854.84
2023-03-29T06:55:33.201Z,99856.59
2023-03-29T06:56:45.304Z,99849.28
2023-03-29T06:57:50.081Z,99854.53
2023-03-29T06:58:51.888Z,99857.78
2023-03-29T07:00:19.423Z,99866.09
2023-03-29T07:01:43.478Z,99862.63
2023-03-29T07:02:51.536Z,99861.44
2023-03-29T07:03:53.206Z,99857.75
2023-03-29T07:05:00.594Z,99863.19
2023-03-29T07:06:16.473Z,99855.25
2023-03-29T07:07:18.292Z,99864.91
2023-03-29T07:08:19.903Z,99858.59
2023-03-29T07:09:38.849Z,99863.06
2023-03-29T07:11:00.801Z,99860.31
2023-03-29T07:12:17.880Z,99857.84
2023-03-29T07:13:19.624Z,99863.31
2023-03-29T07:14:24.862Z,99860.09
2023-03-29T07:15:28.456Z,99855.50
2023-03-29T07:17:05.247Z,99853.41
2023-03-29T07:18:10.073Z,99851.50
2023-03-29T07:19:12.316Z,99848.16
2023-03-29T07:20:26.314Z,99859.06
2023-03-29T07:21:39.815Z,99867.69
2023-03-29T07:22:42.652Z,99857.13
2023-03-29T07:23:44.294Z,99862.59
2023-03-29T07:24:46.306Z,99856.81
2023-03-29T07:25:47.923Z,99856.22
2023-03-29T07:27:03.245Z,99860.75
2023-03-29T07:28:07.391Z,99856.75
2023-03-29T07:29:09.013Z,99858.72
2023-03-29T07:30:14.312Z,99857.13
2023-03-29T07:31:16.956Z,99850.78
2023-03-29T07:32:23.973Z,99855.59
2023-03-29T07:33:44.544Z,99853.09
2023-03-29T07:34:46.330Z,99845.78
2023-03-29T07:35:57.458Z,99857.19
2023-03-29T07:36:59.303Z,99846.19
2023-03-29T07:38:01.067Z,99843.41
2023-03-29T07:39:02.962Z,99848.25
2023-03-29T07:40:09.282Z,99837.31
2023-03-29T07:41:10.832Z,99839.41
2023-03-29T07:42:23.030Z,99844.22
2023-03-29T07:43:25.179Z,99842.28
2023-03-29T07:44:26.806Z,99843.41
2023-03-29T07:45:28.957Z,99841.19
2023-03-29T07:46:44.079Z,99835.38
2023-03-29T07:47:46.814Z,99840.78
2023-03-29T07:48:48.743Z,99839.31
2023-03-29T07:49:50.439Z,99837.91
2023-03-29T07:50:52.549Z,99838.09
2023-03-29T07:51:58.873Z,99835.19
2023-03-29T07:53:00.731Z,99838.94
2023-03-29T07:54:03.693Z,99832.31
2023-03-29T07:55:21.819Z,99833.50
2023-03-29T07:56:40.267Z,99838.09
2023-03-29T07:57:53.022Z,99831.84
2023-03-29T07:58:54.663Z,99830.31
2023-03-29T07:59:56.310Z,99829.94
2023-03-29T08:01:02.083Z,99837.25
2023-03-29T08:02:23.910Z,99834.03
2023-03-29T08:03:27.398Z,99833.22
2023-03-29T08:04:29.185Z,99834.16
2023-03-29T08:05:49.337Z,99830.00
2023-03-29T08:06:51.418Z,99831.16
2023-03-29T08:07:55.249Z,99836.28
2023-03-29T08:08:59.789Z,99833.72
2023-03-29T08:10:01.510Z,99836.06
2023-03-29T08:11:23.370Z,99831.94
2023-03-29T08:12:34.473Z,99826.84
2023-03-29T08:13:37.054Z,99828.06
2023-03-29T08:15:09.006Z,99822.63
2023-03-29T08:16:12.021Z,99828.94
2023-03-29T08:17:19.953Z,99830.25
2023-03-29T08:18:24.109Z,99824.31
2023-03-29T08:19:25.826Z,99825.59
2023-03-29T08:20:36.403Z,99821.69
2023-03-29T08:21:39.474Z,99824.44
2023-03-29T08:22:41.954Z,99828.00
2023-03-29T08:24:02.436Z,99823.38
2023-03-29T08:25:16.251Z,99818.50
2023-03-29T08:26:21.837Z,99815.38
2023-03-29T08:27:25.106Z,99813.53
2023-03-29T08:28:27.146Z,99814.84
2023-03-29T08:29:29.307Z,99817.81
2023-03-29T08:30:30.976Z,99810.03
2023-03-29T08:31:33.523Z,99805.34
2023-03-29T08:32:36.611Z,99808.16
2023-03-29T08:33:38.853Z,99809.84
2023-03-29T08:35:07.537Z,99804.81
2023-03-29T08:36:13.447Z,99801.97
2023-03-29T08:37:15.436Z,99805.97
2023-03-29T08:38:23.083Z,99797.63
2023-03-29T08:39:31.334Z,99798.69
2023-03-29T08:40:58.410Z,99798.81
2023-03-29T08:42:25.500Z,99804.06
2023-03-29T08:43:52.274Z,99793.38
2023-03-29T08:45:13.471Z,99796.34
2023-03-29T08:46:35.338Z,99793.13
2023-03-29T08:48:20.588Z,99793.94
2023-03-29T08:49:23.115Z,99792.78
2023-03-29T08:50:44.139Z,99790.69
2023-03-29T08:51:50.290Z,99787.53
2023-03-29T08:52:59.286Z,99786.22
2023-03-29T08:54:40.212Z,99783.16
2023-03-29T08:56:08.419Z,99777.31
2023-03-29T08:57:32.216Z,99780.22
2023-03-29T08:58:42.290Z,99784.66
2023-03-29T08:59:45.387Z,99778.88
2023-03-29T09:00:52.999Z,99787.97
2023-03-29T09:01:58.134Z,99780.53
2023-03-29T09:15:23.551Z,99765.13
2023-03-29T09:16:38.030Z,99773.44
2023-03-29T09:17:52.499Z,99769.25
2023-03-29T09:19:28.278Z,99773.94
2023-03-29T09:20:39.283Z,99773.63
2023-03-29T09:27:17.558Z,99768.88
2023-03-29T09:29:06.539Z,99758.72
2023-03-29T09:30:47.464Z,99758.59
2023-03-29T09:31:49.687Z,99753.63
2023-03-29T09:33:12.443Z,99757.72
2023-03-29T09:34:43.704Z,99757.16
2023-03-29T09:45:24.813Z,99751.91
2023-03-29T09:46:41.825Z,99752.25
2023-03-29T09:57:02.696Z,99746.47
2023-03-29T09:59:27.943Z,99735.69
2023-03-29T10:00:29.805Z,99731.00
2023-03-29T10:01:40.345Z,99729.66
2023-03-29T10:02:50.837Z,99734.81
2023-03-29T10:03:53.601Z,99732.84
2023-03-29T10:04:56.923Z,99718.41
2023-03-29T10:06:00.689Z,99727.94
2023-03-29T10:07:03.863Z,99724.38
2023-03-29T10:08:29.773Z,99722.25
2023-03-29T10:09:34.047Z,99723.59
2023-03-29T10:10:48.596Z,99723.69
2023-03-29T10:11:54.727Z,99727.41
2023-03-29T10:13:07.275Z,99726.84
2023-03-29T10:14:34.995Z,99724.75
2023-03-29T10:15:36.935Z,99715.06
2023-03-29T10:16:41.924Z,99709.13
2023-03-29T10:17:43.910Z,99713.66
2023-03-29T10:18:45.540Z,99710.91
2023-03-29T10:21:04.783Z,99709.84
2023-03-29T10:22:38.395Z,99705.88
2023-03-29T10:24:05.773Z,99711.03
2023-03-29T10:25:15.785Z,99715.59
2023-03-29T10:29:07.636Z,99704.69
2023-03-29T10:30:12.917Z,99700.28
2023-03-29T10:34:10.753Z,99695.75
2023-03-29T10:35:24.041Z,99694.81
2023-03-29T10:36:27.116Z,99696.00
2023-03-29T10:37:31.435Z,99704.50
2023-03-29T10:38:36.267Z,99693.38
2023-03-29T10:39:39.656Z,99692.31
2023-03-29T10:40:52.672Z,99686.91
2023-03-29T10:41:54.799Z,99692.78
2023-03-29T10:45:39.706Z,99687.34
2023-03-29T10:46:43.392Z,99685.75
2023-03-29T10:47:45.460Z,99681.78
2023-03-29T10:48:49.862Z,99681.19
2023-03-29T10:49:57.394Z,99674.78
2023-03-29T10:51:02.054Z,99679.19
2023-03-29T10:52:07.337Z,99676.34
2023-03-29T10:53:35.598Z,99671.56
2023-03-29T10:54:37.299Z,99673.25
2023-03-29T10:56:03.712Z,99665.25
2023-03-29T10:58:42.603Z,99673.31
2023-03-29T10:59:52.863Z,99664.50
2023-03-29T11:00:58.196Z,99659.34
2023-03-29T11:02:08.775Z,99660.94
2023-03-29T11:03:21.462Z,99658.28
2023-03-29T11:04:45.211Z,99659.56
2023-03-29T11:06:10.563Z,99655.47
2023-03-29T11:07:33.487Z,99653.84
2023-03-29T11:09:13.412Z,99651.47
2023-03-29T11:10:26.844Z,99651.91
2023-03-29T11:11:47.042Z,99644.16
2023-03-29T11:13:03.704Z,99651.41
2023-03-29T11:14:21.937Z,99645.47
2023-03-29T11:15:41.844Z,99645.63
2023-03-29T11:17:12.750Z,99645.75
2023-03-29T11:18:51.730Z,99644.03
2023-03-29T11:20:19.201Z,99632.50
2023-03-29T11:21:59.087Z,99634.69
2023-03-29T11:23:03.439Z,99637.66
2023-03-29T11:24:23.728Z,99638.16
2023-03-29T11:25:39.620Z,99634.91
2023-03-29T11:26:56.285Z,99641.84
2023-03-29T11:28:30.242Z,99633.00
2023-03-29T11:29:38.936Z,99627.63
2023-03-29T11:30:43.513Z,99632.63
2023-03-29T11:32:05.118Z,99627.25
2023-03-29T11:33:40.470Z,99631.09
2023-03-29T11:34:57.320Z,99626.06
2023-03-29T11:36:11.128Z,99627.16
2023-03-29T11:37:20.433Z,99628.25
2023-03-29T11:39:06.338Z,99627.97
2023-03-29T11:40:44.876Z,99623.22
2023-03-29T11:41:50.750Z,99622.75
2023-03-29T11:42:55.193Z,99623.09
2023-03-29T11:44:30.314Z,99619.25
2023-03-29T11:45:53.869Z,99620.22
2023-03-29T11:47:06.694Z,99617.34
2023-03-29T11:48:18.662Z,99619.84
2023-03-29T11:49:28.634Z,99610.66
2023-03-29T11:50:43.226Z,99611.00
2023-03-29T11:52:03.169Z,99614.34
2023-03-29T11:53:16.834Z,99608.88
2023-03-29T11:54:25.308Z,99608.88
2023-03-29T11:55:33.301Z,99610.81
2023-03-29T11:56:47.158Z,99611.41
2023-03-29T11:57:56.016Z,99610.56
2023-03-29T11:59:03.945Z,99604.94
2023-03-29T12:00:11.734Z,99608.88
2023-03-29T12:01:35.169Z,99601.81
2023-03-29T12:02:46.011Z,99601.25
2023-03-29T12:03:55.560Z,99600.41
2023-03-29T12:05:01.064Z,99596.69
2023-03-29T12:06:18.331Z,99600.66
2023-03-29T12:07:29.082Z,99591.09
2023-03-29T12:08:35.098Z,99587.94
2023-03-29T12:09:39.204Z,99590.84
2023-03-29T12:10:46.492Z,99590.84
2023-03-29T12:12:18.077Z,99584.50
2023-03-29T12:13:32.254Z,99583.13
2023-03-29T12:14:47.226Z,99583.41
2023-03-29T12:15:55.252Z,99589.50
2023-03-29T12:17:05.740Z,99583.03
2023-03-29T12:18:19.962Z,99583.75
2023-03-29T12:19:45.220Z,99588.66
2023-03-29T12:20:52.655Z,99586.75
2023-03-29T12:21:56.930Z,99587.22
2023-03-29T12:22:59.245Z,99586.47
2023-03-29T12:24:01.024Z,99585.75
2023-03-29T12:25:05.203Z,99581.72
2023-03-29T12:26:38.026Z,99578.84
2023-03-29T12:28:01.522Z,99582.06
2023-03-29T12:29:11.960Z,99581.97
2023-03-29T12:30:25.900Z,99584.09
2023-03-29T12:31:30.348Z,99574.53
2023-03-29T12:32:51.612Z,99579.31
2023-03-29T12:40:25.199Z,99571.38
2023-03-29T12:41:46.757Z,99576.75
2023-03-29T12:42:53.876Z,99577.81
2023-03-29T12:44:15.007Z,99568.97
2023-03-29T12:45:42.415Z,99568.41
2023-03-29T12:46:44.370Z,99569.47
2023-03-29T12:47:47.703Z,99566.72
2023-03-29T12:48:53.024Z,99562.44
2023-03-29T12:49:57.363Z,99565.06
2023-03-29T12:51:02.063Z,99563.25
2023-03-29T12:52:31.380Z,99567.09
2023-03-29T12:53:40.317Z,99560.97
2023-03-29T12:54:56.713Z,99556.78
2023-03-29T12:56:01.152Z,99552.84
2023-03-29T12:57:21.632Z,99562.72
2023-03-29T12:58:25.895Z,99556.84
2023-03-29T12:59:44.049Z,99546.81
2023-03-29T13:00:47.222Z,99554.81
2023-03-29T13:02:14.998Z,99549.81
2023-03-29T13:03:39.755Z,99546.47
2023-03-29T13:04:43.864Z,99546.34
2023-03-29T13:05:46.144Z,99549.38
2023-03-29T13:06:56.183Z,99546.47
2023-03-29T13:07:57.765Z,99542.03
2023-03-29T13:09:21.022Z,99538.56
2023-03-29T13:10:41.306Z,99538.81
2023-03-29T13:11:43.051Z,99541.47
2023-03-29T13:12:45.469Z,99538.59
2023-03-29T13:13:50.604Z,99536.69
2023-03-29T13:15:00.795Z,99532.38
2023-03-29T13:16:29.042Z,99534.13
2023-03-29T13:17:55.114Z,99529.00
2023-03-29T13:18:56.627Z,99520.16
2023-03-29T13:20:19.675Z,99513.72
2023-03-29T13:21:40.869Z,99518.38
2023-03-29T13:22:56.386Z,99506.19
2023-03-29T13:24:22.985Z,99500.94
2023-03-29T13:25:39.338Z,99504.66
2023-03-29T13:26:53.026Z,99505.47
2023-03-29T13:28:11.412Z,99501.16
2023-03-29T13:29:27.140Z,99494.47
2023-03-29T13:30:44.281Z,99504.41
2023-03-29T13:32:03.351Z,99492.34
2023-03-29T13:33:11.773Z,99501.06
2023-03-29T13:34:44.423Z,99492.56
2023-03-29T13:36:15.579Z,99492.63
2023-03-29T13:37:23.033Z,99492.03
2023-03-29T13:38:28.280Z,99484.16
2023-03-29T13:39:33.370Z,99488.34
2023-03-29T13:40:41.067Z,99490.63
2023-03-29T13:41:42.521Z,99481.88
2023-03-29T13:42:56.018Z,99475.44
2023-03-29T13:43:58.088Z,99483.78
2023-03-29T13:45:12.790Z,99479.22
2023-03-29T13:46:37.578Z,99478.63
2023-03-29T13:47:54.850Z,99479.47
2023-03-29T13:49:22.013Z,99469.59
2023-03-29T13:50:35.479Z,99476.84
2023-03-29T13:51:42.751Z,99480.00
2023-03-29T13:53:07.878Z,99477.81
2023-03-29T13:54:14.637Z,99477.94
2023-03-29T13:55:25.008Z,99477.38
2023-03-29T13:56:53.355Z,99474.59
2023-03-29T13:58:06.689Z,99479.59
2023-03-29T13:59:23.965Z,99480.81
2023-03-29T14:00:32.150Z,99486.06
2023-03-29T14:01:43.627Z,99474.47
2023-03-29T14:02:59.061Z,99479.47
2023-03-29T14:04:02.638Z,99478.06
2023-03-29T14:05:07.967Z,99473.88
2023-03-29T14:06:13.257Z,99476.97
2023-03-29T14:07:15.348Z,99466.44
2023-03-29T14:08:23.389Z,99475.91
2023-03-29T14:09:33.257Z,99473.88
2023-03-29T14:10:41.926Z,99473.63
2023-03-29T14:11:46.393Z,99470.25
2023-03-29T14:12:48.631Z,99469.88
2023-03-29T14:13:58.323Z,99465.69
2023-03-29T14:15:03.240Z,99462.41
2023-03-29T14:16:09.344Z,99472.81
2023-03-29T14:17:21.036Z,99469.97
2023-03-29T14:18:23.637Z,99468.75
2023-03-29T14:19:31.348Z,99470.09
2023-03-29T14:20:33.362Z,99464.81
2023-03-29T14:21:34.916Z,99462.47
2023-03-29T14:22:37.459Z,99462.09
2023-03-29T14:23:39.706Z,99456.72
2023-03-29T14:24:52.851Z,99460.88
2023-03-29T14:25:54.391Z,99454.31
2023-03-29T14:26:56.318Z,99455.31